Time;durP1;ratioP1;P1;durP2;ratioP2;P2;SDS_P1;SDS_P2;PMS_P1;PMS_P2;Temp;Humidity;BMP_temperature;BMP_pressure;BME280_temperature;BME280_humidity;BME280_pressure;Samples;Min_cycle;Max_cycle;Signal;HPM_P1;HPM_P2
2023/07/31 00:01:49;;;;;;;8.63;5.33;;;18.10;99.90;;;;;;5017118;28;20855;-71
2023/07/31 00:04:15;;;;;;;6.73;4.10;;;18.20;99.90;;;;;;5017569;28;20531;-71
2023/07/31 00:06:43;;;;;;;7.67;3.97;;;18.10;99.90;;;;;;5018424;28;20455;-71
2023/07/31 00:09:10;;;;;;;10.40;4.30;;;18.10;99.90;;;;;;5021189;28;20964;-71
2023/07/31 00:11:37;;;;;;;9.57;4.30;;;18.10;99.90;;;;;;5018846;28;20488;-71
2023/07/31 00:14:03;;;;;;;5.57;3.60;;;18.00;99.90;;;;;;5017836;28;20450;-70
2023/07/31 00:16:30;;;;;;;8.77;4.83;;;18.00;99.90;;;;;;5018492;28;20458;-71
2023/07/31 00:18:57;;;;;;;8.40;4.00;;;18.10;99.90;;;;;;5017810;28;20447;-71
2023/07/31 00:21:24;;;;;;;7.20;3.83;;;18.10;99.90;;;;;;5017710;28;20977;-70
2023/07/31 00:23:52;;;;;;;7.97;4.07;;;18.10;99.90;;;;;;5016906;28;20455;-71
2023/07/31 00:26:19;;;;;;;12.90;4.40;;;18.10;99.90;;;;;;5017559;28;20463;-71
2023/07/31 00:28:45;;;;;;;11.03;4.30;;;18.10;99.90;;;;;;5016756;28;21008;-71
2023/07/31 00:31:12;;;;;;;7.13;4.03;;;18.10;99.90;;;;;;5017011;28;20499;-71
2023/07/31 00:33:39;;;;;;;7.00;3.80;;;18.10;99.90;;;;;;5016889;28;20454;-71
2023/07/31 00:36:06;;;;;;;9.23;3.90;;;18.10;99.90;;;;;;5017110;28;20447;-71
2023/07/31 00:38:33;;;;;;;9.10;4.10;;;18.10;99.90;;;;;;5015474;28;20462;-71
2023/07/31 00:41:01;;;;;;;11.33;3.90;;;18.10;99.90;;;;;;5019104;28;20463;-71
2023/07/31 00:43:27;;;;;;;10.53;4.40;;;18.10;99.90;;;;;;5021252;28;20455;-70
2023/07/31 00:45:54;;;;;;;8.20;4.20;;;18.10;99.90;;;;;;5022577;28;20957;-71
2023/07/31 00:48:21;;;;;;;9.40;4.57;;;18.20;99.90;;;;;;5020778;28;20454;-71
2023/07/31 00:50:48;;;;;;;9.13;3.57;;;18.20;99.90;;;;;;5020957;28;20483;-71
2023/07/31 00:53:15;;;;;;;7.20;3.33;;;18.20;99.90;;;;;;5021051;28;20454;-71
2023/07/31 00:55:42;;;;;;;7.37;3.63;;;18.20;99.90;;;;;;5019448;28;20452;-71
2023/07/31 00:58:10;;;;;;;9.20;3.53;;;18.30;99.90;;;;;;5018713;28;20447;-71
2023/07/31 01:00:36;;;;;;;8.20;4.50;;;18.30;99.90;;;;;;5019064;28;20472;-71
2023/07/31 01:03:03;;;;;;;5.13;3.50;;;18.30;99.90;;;;;;5017923;28;20530;-70
2023/07/31 01:05:43;;;;;;;7.90;4.23;;;18.30;99.90;;;;;;5016816;28;20455;-71
2023/07/31 01:08:18;;;;;;;9.00;4.10;;;18.20;99.90;;;;;;5016512;28;20435;-70
2023/07/31 01:10:49;;;;;;;8.30;3.53;;;18.20;99.90;;;;;;5016414;28;20497;-70
2023/07/31 01:13:20;;;;;;;11.50;4.63;;;18.20;99.90;;;;;;5016216;28;20432;-71
2023/07/31 01:15:46;;;;;;;10.43;3.83;;;18.10;99.90;;;;;;5017178;28;20431;-70
2023/07/31 01:18:13;;;;;;;6.83;3.90;;;18.10;99.90;;;;;;5016163;28;20450;-70
2023/07/31 01:20:43;;;;;;;5.03;3.10;;;18.10;99.90;;;;;;5017177;28;20464;-70
2023/07/31 01:23:30;;;;;;;11.73;4.40;;;18.10;99.90;;;;;;5015596;28;20454;-71
2023/07/31 01:26:05;;;;;;;8.43;3.90;;;18.10;99.90;;;;;;5015586;28;20447;-71
2023/07/31 01:28:41;;;;;;;10.43;3.63;;;18.10;99.90;;;;;;5015774;28;20431;-68
2023/07/31 01:31:10;;;;;;;12.57;3.80;;;18.10;99.90;;;;;;5015930;28;20494;-68
2023/07/31 01:33:38;;;;;;;8.40;4.57;;;18.10;99.90;;;;;;5015829;28;20450;-70
2023/07/31 01:36:05;;;;;;;9.87;4.10;;;18.10;99.90;;;;;;5015687;28;20493;-69
2023/07/31 01:38:32;;;;;;;10.80;4.63;;;18.10;99.90;;;;;;5015172;28;20851;-68
2023/07/31 01:41:00;;;;;;;8.60;4.10;;;18.10;99.90;;;;;;5015326;28;20469;-69
2023/07/31 01:43:27;;;;;;;8.73;4.10;;;18.10;99.90;;;;;;5015405;28;20451;-69
2023/07/31 01:45:54;;;;;;;13.70;3.97;;;18.10;99.90;;;;;;5015027;28;20824;-69
2023/07/31 01:48:21;;;;;;;14.83;4.17;;;18.10;99.90;;;;;;5015932;28;20470;-69
2023/07/31 01:50:48;;;;;;;9.00;4.47;;;18.10;99.90;;;;;;5023494;28;20475;-70
2023/07/31 01:53:14;;;;;;;6.70;3.90;;;18.10;99.90;;;;;;5024435;28;20451;-69
2023/07/31 01:55:41;;;;;;;8.50;4.00;;;18.10;99.90;;;;;;5019951;28;20443;-69
2023/07/31 01:58:09;;;;;;;8.60;3.90;;;18.10;99.90;;;;;;5017545;28;20454;-69
2023/07/31 02:00:36;;;;;;;10.10;4.30;;;18.20;99.90;;;;;;5016002;28;20464;-69
2023/07/31 02:03:03;;;;;;;11.10;4.30;;;18.20;99.90;;;;;;5015847;28;20458;-69
2023/07/31 02:05:29;;;;;;;12.07;4.57;;;18.20;99.90;;;;;;5015651;28;20451;-69
2023/07/31 02:07:56;;;;;;;9.33;4.50;;;18.20;99.90;;;;;;5013983;28;20448;-69
2023/07/31 02:10:24;;;;;;;11.27;4.93;;;18.30;99.90;;;;;;5014527;28;20510;-69
2023/07/31 02:12:51;;;;;;;11.57;4.00;;;18.30;99.90;;;;;;5015163;28;20452;-69
2023/07/31 02:15:19;;;;;;;9.87;4.23;;;18.30;99.90;;;;;;5014896;28;20976;-69
2023/07/31 02:17:46;;;;;;;7.23;3.80;;;18.30;99.90;;;;;;5014957;28;20447;-69
2023/07/31 02:20:13;;;;;;;9.93;3.87;;;18.30;99.90;;;;;;5014508;28;20470;-69
2023/07/31 02:22:39;;;;;;;7.27;5.20;;;18.30;99.90;;;;;;5014807;28;20447;-69
2023/07/31 02:25:07;;;;;;;9.27;4.10;;;18.40;99.90;;;;;;5014649;28;20451;-69
2023/07/31 02:27:33;;;;;;;5.27;3.53;;;18.40;99.90;;;;;;5015274;28;20463;-69
2023/07/31 02:30:00;;;;;;;8.10;4.10;;;18.40;99.90;;;;;;5015329;28;20471;-69
2023/07/31 02:32:28;;;;;;;7.27;4.23;;;18.50;99.90;;;;;;5014440;28;20526;-69
2023/07/31 02:34:55;;;;;;;8.80;4.30;;;18.60;99.90;;;;;;5014329;28;20812;-69
2023/07/31 02:37:22;;;;;;;6.13;3.57;;;18.60;99.90;;;;;;5014516;28;20451;-69
2023/07/31 02:39:48;;;;;;;6.87;3.50;;;18.60;99.90;;;;;;5014656;28;20448;-69
2023/07/31 02:42:15;;;;;;;5.23;3.63;;;18.60;99.90;;;;;;5014388;28;20447;-69
2023/07/31 02:44:42;;;;;;;10.40;3.60;;;18.60;99.90;;;;;;5014207;28;20866;-69
2023/07/31 02:47:09;;;;;;;7.70;4.00;;;18.60;99.90;;;;;;5013985;28;20851;-69
2023/07/31 02:49:37;;;;;;;7.00;4.10;;;18.60;99.90;;;;;;5014449;28;20452;-69
2023/07/31 02:52:05;;;;;;;10.93;4.63;;;18.60;99.90;;;;;;5014394;28;20490;-69
2023/07/31 02:54:32;;;;;;;11.40;4.17;;;18.60;99.90;;;;;;5015804;28;20458;-69
2023/07/31 02:56:58;;;;;;;12.33;5.10;;;18.60;99.90;;;;;;5013939;28;20824;-69
2023/07/31 02:59:26;;;;;;;9.57;3.83;;;18.60;99.90;;;;;;5014403;28;20447;-69
2023/07/31 03:01:52;;;;;;;9.00;4.23;;;18.60;99.90;;;;;;5014462;28;20463;-69
2023/07/31 03:04:19;;;;;;;9.70;4.70;;;18.60;99.90;;;;;;5014466;28;20450;-69
2023/07/31 03:06:47;;;;;;;5.77;4.10;;;18.60;99.90;;;;;;5014019;28;20482;-70
2023/07/31 03:09:14;;;;;;;7.00;4.13;;;18.60;99.90;;;;;;5014026;28;20460;-70
2023/07/31 03:11:41;;;;;;;10.80;4.80;;;18.60;99.90;;;;;;5013623;28;21013;-70
2023/07/31 03:14:07;;;;;;;7.13;4.80;;;18.60;99.90;;;;;;5014011;28;20858;-69
2023/07/31 03:16:34;;;;;;;8.43;4.17;;;18.60;99.90;;;;;;5014124;28;20447;-69
2023/07/31 03:19:01;;;;;;;8.53;4.10;;;18.60;99.90;;;;;;5013878;28;20455;-69
2023/07/31 03:21:28;;;;;;;11.73;4.00;;;18.60;99.90;;;;;;5013852;28;20474;-70
2023/07/31 03:23:56;;;;;;;9.20;4.07;;;18.60;99.90;;;;;;5013841;28;20454;-69
2023/07/31 03:26:23;;;;;;;7.33;4.40;;;18.60;99.90;;;;;;5013448;28;20467;-69
2023/07/31 03:28:50;;;;;;;7.43;3.97;;;18.70;99.90;;;;;;5013686;28;20436;-69
2023/07/31 03:31:17;;;;;;;11.67;4.20;;;18.70;99.90;;;;;;5017298;28;20953;-69
2023/07/31 03:33:43;;;;;;;11.17;4.40;;;18.70;99.90;;;;;;5017652;28;20455;-69
2023/07/31 03:36:10;;;;;;;13.30;4.17;;;18.80;99.90;;;;;;5017686;28;20450;-69
2023/07/31 03:38:37;;;;;;;9.63;4.70;;;18.80;99.90;;;;;;5017828;28;20447;-69
2023/07/31 03:41:06;;;;;;;6.90;4.03;;;18.80;99.90;;;;;;5017636;28;20463;-70
2023/07/31 03:43:33;;;;;;;7.57;5.27;;;18.80;99.90;;;;;;5017638;28;20477;-69
2023/07/31 03:46:00;;;;;;;7.40;4.70;;;18.80;99.90;;;;;;5017652;28;20452;-69
2023/07/31 03:48:27;;;;;;;10.80;4.50;;;18.80;99.90;;;;;;5017410;28;20470;-69
2023/07/31 03:50:54;;;;;;;7.37;3.90;;;18.80;99.90;;;;;;5017400;28;20499;-69
2023/07/31 03:53:21;;;;;;;7.37;4.17;;;18.90;99.90;;;;;;5017414;28;20483;-69
2023/07/31 03:55:47;;;;;;;7.27;4.10;;;18.90;99.90;;;;;;5017406;28;20443;-69
2023/07/31 03:58:16;;;;;;;9.93;4.67;;;18.90;99.90;;;;;;5017353;28;20447;-69
2023/07/31 04:00:42;;;;;;;11.43;4.70;;;18.90;99.90;;;;;;5017273;28;20992;-69
2023/07/31 04:03:09;;;;;;;9.77;4.50;;;18.80;99.90;;;;;;5017049;28;20455;-69
2023/07/31 04:05:39;;;;;;;6.53;4.30;;;18.90;99.90;;;;;;5017085;28;20443;-69
2023/07/31 04:08:06;;;;;;;7.90;4.13;;;18.90;99.90;;;;;;5018295;28;20462;-70
2023/07/31 04:10:33;;;;;;;7.07;4.00;;;18.90;99.90;;;;;;5029170;28;20478;-70
2023/07/31 04:13:00;;;;;;;8.50;4.23;;;18.90;99.90;;;;;;5023918;28;20525;-69
2023/07/31 04:15:28;;;;;;;9.20;4.60;;;18.90;99.90;;;;;;5021200;28;20454;-69
2023/07/31 04:17:55;;;;;;;5.67;4.30;;;19.00;99.90;;;;;;5019011;28;20824;-69
2023/07/31 04:20:22;;;;;;;8.00;4.90;;;19.00;99.90;;;;;;5017689;28;20455;-69
2023/07/31 04:22:49;;;;;;;8.07;5.17;;;19.00;99.90;;;;;;5017187;28;20444;-69
2023/07/31 04:25:16;;;;;;;8.23;4.27;;;19.00;99.90;;;;;;5016112;28;20449;-69
2023/07/31 04:27:42;;;;;;;7.57;5.73;;;19.00;99.90;;;;;;5017002;28;20835;-70
2023/07/31 04:30:09;;;;;;;10.23;5.33;;;19.10;99.90;;;;;;5017011;28;20467;-69
2023/07/31 04:32:38;;;;;;;7.70;4.73;;;19.00;99.90;;;;;;5016822;28;20482;-69
2023/07/31 04:35:05;;;;;;;6.77;4.07;;;19.00;99.90;;;;;;5016758;28;20455;-69
2023/07/31 04:37:32;;;;;;;8.87;4.70;;;19.00;99.90;;;;;;5016183;28;20837;-69
2023/07/31 04:39:59;;;;;;;14.47;5.27;;;19.00;99.90;;;;;;5016685;28;20518;-69
2023/07/31 04:42:25;;;;;;;9.10;5.33;;;19.00;99.90;;;;;;5015404;28;20443;-68
2023/07/31 04:44:52;;;;;;;9.07;4.30;;;19.00;99.90;;;;;;5016567;28;20451;-69
2023/07/31 04:47:19;;;;;;;6.00;4.47;;;19.00;99.90;;;;;;5017783;28;20447;-69
2023/07/31 04:49:47;;;;;;;6.40;4.80;;;19.10;99.90;;;;;;5016604;28;20451;-69
2023/07/31 04:52:14;;;;;;;7.93;4.30;;;19.00;99.90;;;;;;5016220;28;20479;-69
2023/07/31 04:54:41;;;;;;;9.13;4.87;;;19.10;99.90;;;;;;5016374;28;20447;-70
2023/07/31 04:57:07;;;;;;;6.83;4.20;;;19.10;99.90;;;;;;5015056;28;20483;-70
2023/07/31 04:59:34;;;;;;;5.20;3.90;;;19.10;99.90;;;;;;5016228;28;20443;-70
2023/07/31 05:02:01;;;;;;;7.03;4.73;;;19.10;99.90;;;;;;5015040;28;20465;-70
2023/07/31 05:04:28;;;;;;;9.00;4.20;;;19.20;99.90;;;;;;5015776;28;20956;-70
2023/07/31 05:06:56;;;;;;;7.30;5.00;;;19.20;99.90;;;;;;5015955;28;20447;-70
2023/07/31 05:09:22;;;;;;;6.57;4.80;;;19.30;99.90;;;;;;5016248;28;20941;-70
2023/07/31 05:11:49;;;;;;;7.73;4.90;;;19.30;99.90;;;;;;5015627;28;20484;-70
2023/07/31 05:14:16;;;;;;;8.03;3.97;;;19.30;99.90;;;;;;5016042;28;20443;-70
2023/07/31 05:16:43;;;;;;;5.87;4.50;;;19.40;99.90;;;;;;5015887;28;20952;-70
2023/07/31 05:19:10;;;;;;;8.20;5.53;;;19.40;99.90;;;;;;5015715;28;20454;-70
2023/07/31 05:21:37;;;;;;;4.80;4.30;;;19.40;99.90;;;;;;5015742;28;20459;-70
2023/07/31 05:24:05;;;;;;;5.10;4.37;;;19.50;99.90;;;;;;5015769;28;20439;-70
2023/07/31 05:26:32;;;;;;;6.47;4.50;;;19.40;99.90;;;;;;5015240;28;20954;-70
2023/07/31 05:28:59;;;;;;;10.30;4.67;;;19.40;99.90;;;;;;5014431;28;20440;-70
2023/07/31 05:31:26;;;;;;;7.47;4.17;;;19.40;99.90;;;;;;5015436;28;20538;-70
2023/07/31 05:33:52;;;;;;;7.47;3.87;;;19.40;99.90;;;;;;5015411;28;20439;-70
2023/07/31 05:36:21;;;;;;;4.77;4.00;;;19.40;99.90;;;;;;5015321;28;20542;-70
2023/07/31 05:38:47;;;;;;;4.80;3.93;;;19.40;99.90;;;;;;5014186;28;20452;-70
2023/07/31 05:41:16;;;;;;;10.10;3.87;;;19.40;99.90;;;;;;5015186;28;20832;-70
2023/07/31 05:43:43;;;;;;;9.80;4.70;;;19.30;99.90;;;;;;5015272;28;20450;-71
2023/07/31 05:46:11;;;;;;;4.83;3.87;;;19.30;99.90;;;;;;5015225;28;20451;-70
2023/07/31 05:48:38;;;;;;;4.50;4.10;;;19.30;99.90;;;;;;5015572;28;20872;-70
2023/07/31 05:51:05;;;;;;;8.40;4.40;;;19.30;99.90;;;;;;5021761;28;20470;-71
2023/07/31 05:53:32;;;;;;;7.87;3.80;;;19.30;99.90;;;;;;5016206;28;20458;-71
2023/07/31 05:55:58;;;;;;;8.03;4.10;;;19.20;99.90;;;;;;5015347;28;20450;-70
2023/07/31 05:58:26;;;;;;;8.00;4.10;;;19.20;99.90;;;;;;5013644;28;20455;-71
2023/07/31 06:00:54;;;;;;;5.80;3.70;;;19.20;99.90;;;;;;5014993;28;20817;-71
2023/07/31 06:03:21;;;;;;;5.83;3.57;;;19.10;99.90;;;;;;5014995;28;20443;-71
2023/07/31 06:05:48;;;;;;;5.17;3.50;;;19.20;99.90;;;;;;5015027;28;20448;-70
2023/07/31 06:08:14;;;;;;;4.67;3.93;;;19.10;99.90;;;;;;5014908;28;20452;-70
2023/07/31 06:10:41;;;;;;;6.70;4.40;;;19.10;99.90;;;;;;5013540;28;20471;-70
2023/07/31 06:13:08;;;;;;;8.20;3.80;;;19.00;99.90;;;;;;5014263;28;21004;-70
2023/07/31 06:15:36;;;;;;;5.70;3.47;;;19.00;99.90;;;;;;5014620;28;20447;-71
2023/07/31 06:18:04;;;;;;;7.27;3.93;;;19.00;99.90;;;;;;5014424;28;20448;-71
2023/07/31 06:20:31;;;;;;;5.87;3.80;;;19.10;99.90;;;;;;5013507;28;20541;-71
2023/07/31 06:22:58;;;;;;;5.90;3.33;;;19.10;99.90;;;;;;5014582;28;20439;-71
2023/07/31 06:25:25;;;;;;;5.03;4.10;;;19.20;99.90;;;;;;5014631;28;20497;-71
2023/07/31 06:27:51;;;;;;;6.67;3.53;;;19.20;99.90;;;;;;5016159;28;20462;-70
2023/07/31 06:30:19;;;;;;;5.27;3.37;;;19.20;99.90;;;;;;5027645;28;20468;-70
2023/07/31 06:32:47;;;;;;;7.23;3.70;;;19.30;99.90;;;;;;5018764;28;20537;-70
2023/07/31 06:35:14;;;;;;;5.07;3.07;;;19.20;99.90;;;;;;5017249;28;20458;-69
2023/07/31 06:37:44;;;;;;;6.07;3.00;;;19.30;99.90;;;;;;5013848;28;20451;-70
2023/07/31 06:40:11;;;;;;;4.20;2.93;;;19.30;99.90;;;;;;5014866;28;20467;-70
2023/07/31 06:42:38;;;;;;;4.47;3.10;;;19.40;99.90;;;;;;5014287;28;20443;-70
2023/07/31 06:45:06;;;;;;;6.80;2.97;;;19.50;99.90;;;;;;5014432;28;20439;-70
2023/07/31 06:47:33;;;;;;;5.63;3.27;;;19.50;99.90;;;;;;5014335;28;20452;-70
2023/07/31 06:50:01;;;;;;;3.77;3.00;;;19.60;99.90;;;;;;5014485;28;20474;-70
2023/07/31 06:52:27;;;;;;;5.50;3.17;;;19.60;99.90;;;;;;5013975;28;20996;-70
2023/07/31 06:55:10;;;;;;;6.70;3.37;;;19.60;99.90;;;;;;5013979;28;20941;-70
2023/07/31 06:57:36;;;;;;;6.30;3.83;;;19.70;99.90;;;;;;5014272;28;20443;-70
2023/07/31 07:00:04;;;;;;;6.93;3.83;;;19.60;99.90;;;;;;5014177;28;20486;-70
2023/07/31 07:02:31;;;;;;;6.17;3.60;;;19.60;99.90;;;;;;5014171;28;20523;-71
2023/07/31 07:04:57;;;;;;;6.07;3.30;;;19.60;99.90;;;;;;5014804;28;20439;-70
2023/07/31 07:07:26;;;;;;;10.73;4.33;;;19.50;99.90;;;;;;5014852;28;20439;-70
2023/07/31 07:09:53;;;;;;;6.90;3.47;;;19.50;99.90;;;;;;5013665;28;20881;-70
2023/07/31 07:12:20;;;;;;;4.73;3.40;;;19.40;99.90;;;;;;5013826;28;20556;-70
2023/07/31 07:14:47;;;;;;;7.17;3.90;;;19.50;99.90;;;;;;5013800;28;20454;-70
2023/07/31 07:17:14;;;;;;;5.93;3.07;;;19.50;99.90;;;;;;5013890;28;20451;-71
2023/07/31 07:19:41;;;;;;;6.53;3.20;;;19.40;99.90;;;;;;5013764;28;20523;-71
2023/07/31 07:22:09;;;;;;;5.50;3.53;;;19.40;99.90;;;;;;5013693;28;20443;-70
2023/07/31 07:24:37;;;;;;;5.17;3.60;;;19.40;99.90;;;;;;5013692;28;20454;-70
2023/07/31 07:27:04;;;;;;;6.10;2.90;;;19.30;99.90;;;;;;5013344;28;20543;-71
2023/07/31 07:29:31;;;;;;;5.00;3.53;;;19.30;99.90;;;;;;5013533;28;20450;-70
2023/07/31 07:31:58;;;;;;;5.20;3.37;;;19.30;99.90;;;;;;5013599;28;20482;-71
2023/07/31 07:34:26;;;;;;;6.60;3.73;;;19.20;99.90;;;;;;5013411;28;20462;-71
2023/07/31 07:36:53;;;;;;;6.37;3.80;;;19.20;99.90;;;;;;5013575;28;20447;-70
2023/07/31 07:39:21;;;;;;;6.50;2.87;;;19.10;99.90;;;;;;5013379;28;20444;-70
2023/07/31 07:41:49;;;;;;;5.30;3.43;;;19.00;99.90;;;;;;5012325;28;20467;-71
2023/07/31 07:44:16;;;;;;;4.37;3.10;;;19.00;99.90;;;;;;5013438;28;20538;-70
2023/07/31 07:46:43;;;;;;;5.90;2.97;;;18.90;99.90;;;;;;5013485;28;20489;-70
2023/07/31 07:49:09;;;;;;;5.07;2.93;;;18.90;99.90;;;;;;5013651;28;20862;-70
2023/07/31 07:51:36;;;;;;;15.50;3.67;;;18.80;99.90;;;;;;5013253;28;20467;-70
2023/07/31 07:54:03;;;;;;;5.17;3.83;;;18.80;99.90;;;;;;5013584;28;20458;-70
2023/07/31 07:56:30;;;;;;;6.60;3.30;;;18.80;99.90;;;;;;5013385;28;20462;-70
2023/07/31 07:58:58;;;;;;;5.40;3.07;;;18.80;99.90;;;;;;5013227;28;20447;-70
2023/07/31 08:01:25;;;;;;;5.83;3.33;;;18.90;99.90;;;;;;5013349;28;20463;-71
2023/07/31 08:03:52;;;;;;;3.83;3.00;;;19.00;99.90;;;;;;5013934;28;20446;-70
2023/07/31 08:06:18;;;;;;;7.90;3.30;;;19.10;99.90;;;;;;5013172;28;20479;-70
2023/07/31 08:08:45;;;;;;;3.73;2.97;;;19.10;99.90;;;;;;5013182;28;20497;-70
2023/07/31 08:11:12;;;;;;;5.00;2.83;;;19.10;99.90;;;;;;5011898;28;20483;-70
2023/07/31 08:13:39;;;;;;;4.47;3.20;;;19.20;99.90;;;;;;5012769;28;20494;-70
2023/07/31 08:16:07;;;;;;;6.70;3.33;;;19.20;99.90;;;;;;5011995;28;20937;-70
2023/07/31 08:18:33;;;;;;;8.20;2.90;;;19.30;99.90;;;;;;5016646;28;20824;-70
2023/07/31 08:21:00;;;;;;;6.80;3.90;;;19.30;99.90;;;;;;5017284;28;20475;-70
2023/07/31 08:23:27;;;;;;;5.37;2.90;;;19.20;99.90;;;;;;5016904;28;20450;-71
2023/07/31 08:25:54;;;;;;;3.63;2.70;;;19.20;99.90;;;;;;5016638;28;20459;-71
2023/07/31 08:28:20;;;;;;;7.03;3.63;;;19.20;99.90;;;;;;5016645;28;20442;-71
2023/07/31 08:30:47;;;;;;;4.73;3.20;;;19.30;99.90;;;;;;5016017;28;20463;-71
2023/07/31 08:33:15;;;;;;;4.70;3.40;;;19.30;99.90;;;;;;5016488;28;20486;-71
2023/07/31 08:35:42;;;;;;;6.67;3.20;;;19.30;99.90;;;;;;5016616;28;20459;-70
2023/07/31 08:38:09;;;;;;;4.20;2.73;;;19.30;99.90;;;;;;5015985;28;20944;-71
2023/07/31 08:40:38;;;;;;;5.60;3.33;;;19.30;99.90;;;;;;5015983;28;20471;-71
2023/07/31 08:43:05;;;;;;;5.80;3.20;;;19.30;99.90;;;;;;5015393;28;20447;-71
2023/07/31 08:45:33;;;;;;;5.50;3.43;;;19.40;99.90;;;;;;5024688;28;20458;-71
2023/07/31 08:48:00;;;;;;;7.37;3.60;;;19.40;99.90;;;;;;5039590;28;20447;-70
2023/07/31 08:50:28;;;;;;;5.73;3.00;;;19.50;99.90;;;;;;5032556;28;20471;-71
2023/07/31 08:52:55;;;;;;;4.30;2.73;;;19.40;99.90;;;;;;5022000;28;20570;-71
2023/07/31 08:55:23;;;;;;;5.67;3.20;;;19.50;99.90;;;;;;5017986;28;20867;-71
2023/07/31 08:57:52;;;;;;;6.90;3.60;;;19.50;99.90;;;;;;5018017;28;20960;-71
2023/07/31 09:00:23;;;;;;;6.67;3.60;;;19.40;99.90;;;;;;5017935;28;20470;-71
2023/07/31 09:02:55;;;;;;;7.70;3.30;;;19.40;99.90;;;;;;5015510;28;20439;-71
2023/07/31 09:05:22;;;;;;;7.47;3.33;;;19.30;99.90;;;;;;5016554;28;20439;-71
2023/07/31 09:07:52;;;;;;;4.87;3.00;;;19.30;99.90;;;;;;5016491;28;20451;-71
2023/07/31 09:10:19;;;;;;;6.40;2.90;;;19.40;99.90;;;;;;5016362;28;20471;-71
2023/07/31 09:12:46;;;;;;;4.73;3.17;;;19.50;99.90;;;;;;5016009;28;21008;-71
2023/07/31 09:15:13;;;;;;;4.70;3.10;;;19.60;99.90;;;;;;5015165;28;20816;-71
2023/07/31 09:17:40;;;;;;;4.33;3.23;;;19.70;99.90;;;;;;5015958;28;20443;-71
2023/07/31 09:20:17;;;;;;;7.13;3.00;;;19.80;99.90;;;;;;5015693;28;20459;-71
2023/07/31 09:22:45;;;;;;;3.03;2.73;;;20.00;99.90;;;;;;5015659;28;20963;-71
2023/07/31 09:25:17;;;;;;;4.13;3.30;;;20.10;99.90;;;;;;5016743;28;20447;-71
2023/07/31 09:27:49;;;;;;;3.10;2.40;;;20.20;99.90;;;;;;5018164;28;20451;-71
2023/07/31 09:30:15;;;;;;;4.40;2.90;;;20.20;99.90;;;;;;5016334;28;20474;-72
2023/07/31 09:32:43;;;;;;;4.93;3.07;;;20.20;99.90;;;;;;5016628;28;20483;-72
2023/07/31 09:35:19;;;;;;;5.37;2.83;;;20.20;99.90;;;;;;5016715;28;20451;-71
2023/07/31 09:37:50;;;;;;;4.30;3.10;;;20.20;99.90;;;;;;5019501;28;20451;-72
2023/07/31 09:40:28;;;;;;;3.23;2.93;;;20.20;99.90;;;;;;5022567;28;21046;-71
2023/07/31 09:42:57;;;;;;;4.00;2.73;;;20.10;99.90;;;;;;5020979;28;20424;-71
2023/07/31 09:45:24;;;;;;;3.90;2.70;;;20.10;99.90;;;;;;5020200;28;20848;-71
2023/07/31 09:47:51;;;;;;;9.70;4.10;;;20.00;99.90;;;;;;5020144;28;20455;-71
2023/07/31 09:50:18;;;;;;;3.90;2.83;;;19.90;99.90;;;;;;5018975;28;20475;-71
2023/07/31 09:52:45;;;;;;;4.83;3.40;;;19.80;99.90;;;;;;5018119;28;20875;-70
2023/07/31 09:55:13;;;;;;;4.37;2.90;;;19.90;99.90;;;;;;5021103;28;20457;-71
2023/07/31 09:57:42;;;;;;;7.23;2.90;;;19.70;99.90;;;;;;5037323;28;20443;-71
2023/07/31 10:00:10;;;;;;;6.10;3.20;;;19.70;99.90;;;;;;5036483;28;20473;-71
2023/07/31 10:02:38;;;;;;;5.10;3.63;;;19.80;99.90;;;;;;5036238;28;20489;-71
2023/07/31 10:05:06;;;;;;;9.40;3.20;;;19.80;99.90;;;;;;5035941;28;20446;-71
2023/07/31 10:07:38;;;;;;;4.57;3.23;;;19.70;99.90;;;;;;5035392;28;20473;-71
2023/07/31 10:10:07;;;;;;;5.07;3.47;;;19.70;99.90;;;;;;5035750;28;20462;-71
2023/07/31 10:12:35;;;;;;;6.70;2.97;;;19.80;99.90;;;;;;5036514;28;20830;-71
2023/07/31 10:15:04;;;;;;;5.53;3.10;;;19.80;99.90;;;;;;5035562;28;20577;-71
2023/07/31 10:17:32;;;;;;;4.77;2.90;;;19.90;99.90;;;;;;5034766;28;20482;-71
2023/07/31 10:20:01;;;;;;;3.70;3.07;;;19.90;99.90;;;;;;5034645;28;20502;-71
2023/07/31 10:22:30;;;;;;;3.57;3.23;;;20.00;99.90;;;;;;5034852;28;20453;-71
2023/07/31 10:24:59;;;;;;;2.63;2.40;;;20.10;99.90;;;;;;5033180;28;20445;-71
2023/07/31 10:27:26;;;;;;;4.80;3.47;;;20.20;99.90;;;;;;5034253;28;20454;-71
2023/07/31 10:29:55;;;;;;;3.90;3.07;;;20.40;99.90;;;;;;5034367;28;20473;-71
2023/07/31 10:32:24;;;;;;;4.03;3.20;;;20.50;99.90;;;;;;5034271;28;20454;-71
2023/07/31 10:34:52;;;;;;;6.07;3.10;;;20.60;99.90;;;;;;5034303;28;20439;-71
2023/07/31 10:37:26;;;;;;;6.20;3.97;;;20.70;99.90;;;;;;5033844;28;20936;-71
2023/07/31 10:40:01;;;;;;;4.77;2.80;;;20.80;99.90;;;;;;5033641;28;20462;-71
2023/07/31 10:42:32;;;;;;;6.30;2.50;;;20.90;99.90;;;;;;5034259;28;20770;-71
2023/07/31 10:45:00;;;;;;;3.03;2.73;;;20.80;99.90;;;;;;5034032;28;20454;-70
2023/07/31 10:47:28;;;;;;;4.77;2.90;;;20.60;99.90;;;;;;5034068;28;20442;-71
2023/07/31 10:50:13;;;;;;;5.60;2.33;;;20.50;99.90;;;;;;5033782;28;20490;-71
2023/07/31 10:52:40;;;;;;;3.10;2.30;;;20.40;99.90;;;;;;5034761;28;20745;-70
2023/07/31 10:55:23;;;;;;;6.23;2.20;;;20.30;99.90;;;;;;5033961;28;20453;-70
2023/07/31 10:57:50;;;;;;;4.77;1.60;;;20.20;99.90;;;;;;5033892;28;20434;-71
2023/07/31 11:00:22;;;;;;;3.90;2.00;;;20.30;99.90;;;;;;5033790;28;21057;-71
2023/07/31 11:03:03;;;;;;;2.53;1.57;;;20.30;99.90;;;;;;5039967;28;20510;-71
2023/07/31 11:05:53;;;;;;;2.50;1.90;;;20.50;99.90;;;;;;5044107;28;20430;-71
2023/07/31 11:08:22;;;;;;;3.53;2.07;;;20.90;99.90;;;;;;5033076;28;20446;-71
2023/07/31 11:10:50;;;;;;;2.00;1.57;;;21.30;99.90;;;;;;5026063;28;20980;-71
2023/07/31 11:13:17;;;;;;;1.67;1.57;;;21.50;99.90;;;;;;5014204;28;20483;-71
2023/07/31 11:15:44;;;;;;;3.13;1.70;;;21.60;99.40;;;;;;5014536;28;20436;-71
2023/07/31 11:18:12;;;;;;;1.93;1.40;;;21.80;99.20;;;;;;5014669;28;20802;-71
2023/07/31 11:20:40;;;;;;;1.43;1.33;;;21.90;97.60;;;;;;5014485;28;20534;-71
2023/07/31 11:23:09;;;;;;;2.90;1.80;;;21.70;97.70;;;;;;5012958;28;20440;-71
2023/07/31 11:25:36;;;;;;;1.50;1.17;;;21.80;98.30;;;;;;5013798;28;20446;-71
2023/07/31 11:28:07;;;;;;;2.70;1.43;;;21.90;97.60;;;;;;5013485;28;20461;-71
2023/07/31 11:30:34;;;;;;;1.67;1.50;;;21.90;97.80;;;;;;5013824;28;20463;-71
2023/07/31 11:33:03;;;;;;;4.30;1.67;;;21.90;97.00;;;;;;5013679;28;20450;-72
2023/07/31 11:35:35;;;;;;;1.93;1.20;;;21.90;97.40;;;;;;5014015;28;20505;-71
2023/07/31 11:38:02;;;;;;;2.00;1.50;;;21.80;97.20;;;;;;5018809;28;20428;-70
2023/07/31 11:40:29;;;;;;;1.57;1.40;;;21.60;96.80;;;;;;5016403;28;20471;-71
2023/07/31 11:42:58;;;;;;;1.57;1.47;;;21.40;97.50;;;;;;5012749;28;20452;-71
2023/07/31 11:45:27;;;;;;;1.20;1.10;;;21.50;98.50;;;;;;5012697;28;20444;-71
2023/07/31 11:47:55;;;;;;;2.10;1.60;;;21.50;97.80;;;;;;5013724;28;20475;-71
2023/07/31 11:50:24;;;;;;;2.30;1.50;;;21.70;98.50;;;;;;5013237;28;20470;-71
2023/07/31 11:52:55;;;;;;;1.70;1.60;;;21.50;97.20;;;;;;5017984;28;20513;-71
2023/07/31 11:55:23;;;;;;;3.60;1.53;;;21.60;98.10;;;;;;5017900;28;20439;-71
2023/07/31 11:57:50;;;;;;;2.50;1.50;;;21.50;98.00;;;;;;5017557;28;20999;-71
2023/07/31 12:00:17;;;;;;;2.47;2.00;;;21.30;97.80;;;;;;5017438;28;20470;-71
2023/07/31 12:02:45;;;;;;;3.77;1.70;;;21.30;98.60;;;;;;5017338;28;20447;-71
2023/07/31 12:05:13;;;;;;;2.33;2.03;;;21.30;99.40;;;;;;5017239;28;20443;-71
2023/07/31 12:07:52;;;;;;;3.10;2.20;;;21.30;99.70;;;;;;5016769;28;20474;-71
2023/07/31 12:10:30;;;;;;;2.20;1.83;;;21.30;99.90;;;;;;5016186;28;20463;-71
2023/07/31 12:12:59;;;;;;;2.57;2.37;;;21.40;99.90;;;;;;5017126;28;20435;-71
2023/07/31 12:15:34;;;;;;;4.47;1.93;;;21.30;99.90;;;;;;5017091;28;20455;-71
2023/07/31 12:18:01;;;;;;;2.00;1.90;;;21.40;99.90;;;;;;5015342;28;20858;-71
2023/07/31 12:20:27;;;;;;;2.30;1.90;;;21.40;99.90;;;;;;5015367;28;20491;-71
2023/07/31 12:22:58;;;;;;;1.83;1.70;;;21.40;99.90;;;;;;5017282;28;20451;-71
2023/07/31 12:25:30;;;;;;;2.90;2.37;;;21.40;99.90;;;;;;5016937;28;20451;-70
2023/07/31 12:27:57;;;;;;;4.00;2.83;;;21.40;99.90;;;;;;5016587;28;20455;-71
2023/07/31 12:30:32;;;;;;;2.77;2.57;;;21.70;99.90;;;;;;5016526;28;20467;-71
2023/07/31 12:33:03;;;;;;;2.43;2.23;;;21.90;99.90;;;;;;5016720;28;20549;-71
2023/07/31 12:35:36;;;;;;;2.80;2.53;;;22.10;99.90;;;;;;5016517;28;20935;-71
2023/07/31 12:38:04;;;;;;;2.97;2.50;;;22.30;99.90;;;;;;4999599;28;20447;-71
2023/07/31 12:40:31;;;;;;;2.43;2.23;;;22.60;99.90;;;;;;5016294;28;20984;-71
2023/07/31 12:42:58;;;;;;;2.73;2.50;;;23.00;99.00;;;;;;5015969;28;20458;-71
2023/07/31 12:45:25;;;;;;;2.60;2.40;;;23.30;97.80;;;;;;5016491;28;20443;-71
2023/07/31 12:47:51;;;;;;;3.27;2.50;;;23.40;96.50;;;;;;5016548;28;20470;-71
2023/07/31 12:50:18;;;;;;;2.60;2.30;;;23.30;96.10;;;;;;5015857;28;20490;-71